sensor_id;sensor_type;location;lat;lon;timestamp;pressure;altitude;pressure_sealevel;temperature;humidity
71915;BME280;60387;49.994;14.660;2022-07-25T00:02:22;97818.38;;;21.16;40.96
71915;BME280;60387;49.994;14.660;2022-07-25T00:04:55;97807.25;;;21.09;40.98
71915;BME280;60387;49.994;14.660;2022-07-25T00:07:28;97805.63;;;21.08;40.99
71915;BME280;60387;49.994;14.660;2022-07-25T00:10:02;97802.16;;;21.11;41.48
71915;BME280;60387;49.994;14.660;2022-07-25T00:12:36;97794.19;;;21.06;41.17
71915;BME280;60387;49.994;14.660;2022-07-25T00:15:10;97794.59;;;21.08;41.23
71915;BME280;60387;49.994;14.660;2022-07-25T00:17:43;97801.34;;;21.11;41.42
71915;BME280;60387;49.994;14.660;2022-07-25T00:20:16;97796.16;;;21.06;41.90
71915;BME280;60387;49.994;14.660;2022-07-25T00:22:50;97795.34;;;21.05;41.61
71915;BME280;60387;49.994;14.660;2022-07-25T00:25:23;97787.09;;;21.05;41.61
71915;BME280;60387;49.994;14.660;2022-07-25T00:27:56;97796.50;;;21.04;41.58
71915;BME280;60387;49.994;14.660;2022-07-25T00:30:30;97795.72;;;21.04;42.28
71915;BME280;60387;49.994;14.660;2022-07-25T00:33:03;97790.16;;;21.00;42.09
71915;BME280;60387;49.994;14.660;2022-07-25T00:35:36;97786.25;;;21.01;41.95
71915;BME280;60387;49.994;14.660;2022-07-25T00:38:09;97785.50;;;21.04;41.77
71915;BME280;60387;49.994;14.660;2022-07-25T00:40:43;97779.19;;;21.04;41.91
71915;BME280;60387;49.994;14.660;2022-07-25T00:43:16;97772.16;;;21.06;42.16
71915;BME280;60387;49.994;14.660;2022-07-25T00:45:49;97772.16;;;21.06;42.12
71915;BME280;60387;49.994;14.660;2022-07-25T00:48:24;97773.03;;;21.10;41.65
71915;BME280;60387;49.994;14.660;2022-07-25T00:50:58;97771.03;;;21.11;42.30
71915;BME280;60387;49.994;14.660;2022-07-25T00:53:32;97757.69;;;21.13;41.48
71915;BME280;60387;49.994;14.660;2022-07-25T00:56:05;97760.44;;;21.13;42.34
71915;BME280;60387;49.994;14.660;2022-07-25T00:58:38;97758.13;;;21.15;41.90
71915;BME280;60387;49.994;14.660;2022-07-25T01:01:12;97760.09;;;21.14;42.05
71915;BME280;60387;49.994;14.660;2022-07-25T01:03:45;97765.59;;;21.14;42.19
71915;BME280;60387;49.994;14.660;2022-07-25T01:06:19;97759.31;;;21.14;42.21
71915;BME280;60387;49.994;14.660;2022-07-25T01:08:53;97759.34;;;21.17;42.17
71915;BME280;60387;49.994;14.660;2022-07-25T01:11:26;97760.22;;;21.21;42.35
71915;BME280;60387;49.994;14.660;2022-07-25T01:14:00;97761.00;;;21.22;42.04
71915;BME280;60387;49.994;14.660;2022-07-25T01:16:33;97766.94;;;21.24;41.77
71915;BME280;60387;49.994;14.660;2022-07-25T01:19:06;97753.06;;;21.17;42.11
71915;BME280;60387;49.994;14.660;2022-07-25T01:21:40;97757.81;;;21.20;41.72
71915;BME280;60387;49.994;14.660;2022-07-25T01:24:13;97758.97;;;21.19;41.76
71915;BME280;60387;49.994;14.660;2022-07-25T01:26:46;97760.50;;;21.16;42.22
71915;BME280;60387;49.994;14.660;2022-07-25T01:29:20;97759.66;;;21.12;42.55
71915;BME280;60387;49.994;14.660;2022-07-25T01:31:53;97752.94;;;21.10;42.25
71915;BME280;60387;49.994;14.660;2022-07-25T01:34:27;97749.34;;;21.06;42.09
71915;BME280;60387;49.994;14.660;2022-07-25T01:37:00;97746.88;;;21.01;41.98
71915;BME280;60387;49.994;14.660;2022-07-25T01:39:33;97745.22;;;20.96;42.10
71915;BME280;60387;49.994;14.660;2022-07-25T01:42:07;97751.91;;;20.95;42.17
71915;BME280;60387;49.994;14.660;2022-07-25T01:44:40;97743.56;;;20.92;42.06
71915;BME280;60387;49.994;14.660;2022-07-25T01:47:13;97743.09;;;20.86;42.23
71915;BME280;60387;49.994;14.660;2022-07-25T01:49:47;97744.16;;;20.82;42.21
71915;BME280;60387;49.994;14.660;2022-07-25T01:52:20;97743.34;;;20.81;42.39
71915;BME280;60387;49.994;14.660;2022-07-25T01:54:54;97737.78;;;20.78;42.55
71915;BME280;60387;49.994;14.660;2022-07-25T01:57:27;97734.94;;;20.74;42.49
71915;BME280;60387;49.994;14.660;2022-07-25T02:00:00;97731.34;;;20.70;42.29
71915;BME280;60387;49.994;14.660;2022-07-25T02:02:34;97727.75;;;20.66;42.78
71915;BME280;60387;49.994;14.660;2022-07-25T02:05:08;97729.28;;;20.64;42.79
71915;BME280;60387;49.994;14.660;2022-07-25T02:07:42;97723.28;;;20.58;42.90
71915;BME280;60387;49.994;14.660;2022-07-25T02:10:15;97722.06;;;20.56;42.65
71915;BME280;60387;49.994;14.660;2022-07-25T02:12:48;97719.66;;;20.54;42.66
71915;BME280;60387;49.994;14.660;2022-07-25T02:15:22;97717.22;;;20.49;43.27
71915;BME280;60387;49.994;14.660;2022-07-25T02:17:55;97716.41;;;20.49;42.71
71915;BME280;60387;49.994;14.660;2022-07-25T02:20:28;97714.00;;;20.47;42.87
71915;BME280;60387;49.994;14.660;2022-07-25T02:23:03;97710.06;;;20.45;42.77
71915;BME280;60387;49.994;14.660;2022-07-25T02:25:36;97722.59;;;20.42;42.89
71915;BME280;60387;49.994;14.660;2022-07-25T02:28:09;97710.34;;;20.40;42.73
71915;BME280;60387;49.994;14.660;2022-07-25T02:30:43;97715.78;;;20.36;43.44
71915;BME280;60387;49.994;14.660;2022-07-25T02:33:16;97716.06;;;20.31;43.24
71915;BME280;60387;49.994;14.660;2022-07-25T02:35:49;97703.03;;;20.28;43.25
71915;BME280;60387;49.994;14.660;2022-07-25T02:38:22;97713.19;;;20.24;43.39
71915;BME280;60387;49.994;14.660;2022-07-25T02:40:56;97704.81;;;20.17;43.21
71915;BME280;60387;49.994;14.660;2022-07-25T02:43:29;97716.97;;;20.16;43.41
71915;BME280;60387;49.994;14.660;2022-07-25T02:46:02;97709.81;;;20.12;43.46
71915;BME280;60387;49.994;14.660;2022-07-25T02:48:36;97715.66;;;20.10;43.42
71915;BME280;60387;49.994;14.660;2022-07-25T02:51:09;97709.72;;;20.08;43.93
71915;BME280;60387;49.994;14.660;2022-07-25T02:53:42;97713.56;;;20.04;43.73
71915;BME280;60387;49.994;14.660;2022-07-25T02:56:16;97717.44;;;20.03;44.41
71915;BME280;60387;49.994;14.660;2022-07-25T02:58:49;97715.41;;;20.00;43.80
71915;BME280;60387;49.994;14.660;2022-07-25T03:01:23;97712.59;;;19.96;43.55
71915;BME280;60387;49.994;14.660;2022-07-25T03:03:56;97726.31;;;19.96;43.73
71915;BME280;60387;49.994;14.660;2022-07-25T03:06:29;97709.84;;;19.96;43.47
71915;BME280;60387;49.994;14.660;2022-07-25T03:09:03;97709.84;;;19.96;43.61
71915;BME280;60387;49.994;14.660;2022-07-25T03:11:36;97714.91;;;19.94;43.50
71915;BME280;60387;49.994;14.660;2022-07-25T03:14:10;97718.00;;;19.93;43.50
71915;BME280;60387;49.994;14.660;2022-07-25T03:16:43;97710.50;;;19.90;43.49
71915;BME280;60387;49.994;14.660;2022-07-25T03:19:16;97710.41;;;19.86;43.47
71915;BME280;60387;49.994;14.660;2022-07-25T03:21:49;97707.59;;;19.83;43.39
71915;BME280;60387;49.994;14.660;2022-07-25T03:24:23;97697.25;;;19.77;43.55
71915;BME280;60387;49.994;14.660;2022-07-25T03:26:56;97705.91;;;19.78;43.61
71915;BME280;60387;49.994;14.660;2022-07-25T03:29:29;97706.66;;;19.76;43.77
71915;BME280;60387;49.994;14.660;2022-07-25T03:32:03;97700.28;;;19.72;43.57
71915;BME280;60387;49.994;14.660;2022-07-25T03:34:36;97705.75;;;19.72;45.05
71915;BME280;60387;49.994;14.660;2022-07-25T03:37:09;97692.31;;;19.67;44.30
71915;BME280;60387;49.994;14.660;2022-07-25T03:39:44;97696.22;;;19.66;44.04
71915;BME280;60387;49.994;14.660;2022-07-25T03:42:17;97689.94;;;19.65;45.17
71915;BME280;60387;49.994;14.660;2022-07-25T03:44:50;97690.75;;;19.66;45.20
71915;BME280;60387;49.994;14.660;2022-07-25T03:47:23;97692.31;;;19.67;44.60
71915;BME280;60387;49.994;14.660;2022-07-25T03:49:57;97685.50;;;19.79;45.25
71915;BME280;60387;49.994;14.660;2022-07-25T03:52:30;97687.66;;;20.05;44.86
71915;BME280;60387;49.994;14.660;2022-07-25T03:55:07;97676.78;;;20.53;44.75
71915;BME280;60387;49.994;14.660;2022-07-25T03:57:41;97681.88;;;20.96;44.30
71915;BME280;60387;49.994;14.660;2022-07-25T04:00:14;97684.53;;;21.15;44.20
71915;BME280;60387;49.994;14.660;2022-07-25T04:02:48;97680.34;;;21.25;43.83
71915;BME280;60387;49.994;14.660;2022-07-25T04:05:21;97674.25;;;21.38;43.79
71915;BME280;60387;49.994;14.660;2022-07-25T04:07:55;97674.00;;;21.76;43.67
71915;BME280;60387;49.994;14.660;2022-07-25T04:10:28;97671.44;;;22.23;43.13
71915;BME280;60387;49.994;14.660;2022-07-25T04:13:02;97669.91;;;22.66;42.51
71915;BME280;60387;49.994;14.660;2022-07-25T04:15:35;97673.84;;;23.08;42.60
71915;BME280;60387;49.994;14.660;2022-07-25T04:18:08;97666.25;;;23.48;42.18
71915;BME280;60387;49.994;14.660;2022-07-25T04:20:41;97664.03;;;23.75;41.74
71915;BME280;60387;49.994;14.660;2022-07-25T04:23:15;97668.13;;;24.02;41.43
71915;BME280;60387;49.994;14.660;2022-07-25T04:25:48;97654.00;;;24.35;41.55
71915;BME280;60387;49.994;14.660;2022-07-25T04:28:21;97665.97;;;24.74;40.94
71915;BME280;60387;49.994;14.660;2022-07-25T04:30:55;97662.00;;;25.13;40.56
71915;BME280;60387;49.994;14.660;2022-07-25T04:33:28;97666.75;;;25.51;40.23
71915;BME280;60387;49.994;14.660;2022-07-25T04:36:01;97658.34;;;25.76;40.11
71915;BME280;60387;49.994;14.660;2022-07-25T04:38:35;97665.47;;;25.94;39.86
71915;BME280;60387;49.994;14.660;2022-07-25T04:41:08;97665.00;;;26.03;39.64
71915;BME280;60387;49.994;14.660;2022-07-25T04:43:42;97666.53;;;26.18;39.44
71915;BME280;60387;49.994;14.660;2022-07-25T04:46:22;97664.88;;;26.34;39.29
71915;BME280;60387;49.994;14.660;2022-07-25T04:48:55;97669.16;;;26.53;39.26
71915;BME280;60387;49.994;14.660;2022-07-25T04:51:28;97667.09;;;26.67;39.39
71915;BME280;60387;49.994;14.660;2022-07-25T04:54:02;97670.56;;;26.82;39.12
71915;BME280;60387;49.994;14.660;2022-07-25T04:56:35;97677.22;;;26.91;38.94
71915;BME280;60387;49.994;14.660;2022-07-25T04:59:08;97666.88;;;26.99;39.42
71915;BME280;60387;49.994;14.660;2022-07-25T05:01:42;97673.16;;;27.03;39.24
71915;BME280;60387;49.994;14.660;2022-07-25T05:04:15;97677.16;;;27.02;39.15
71915;BME280;60387;49.994;14.660;2022-07-25T05:06:48;97669.59;;;27.06;39.23
71915;BME280;60387;49.994;14.660;2022-07-25T05:09:22;97667.56;;;27.13;39.42
71915;BME280;60387;49.994;14.660;2022-07-25T05:11:55;97666.28;;;27.21;39.25
71915;BME280;60387;49.994;14.660;2022-07-25T05:14:28;97667.38;;;27.30;39.27
71915;BME280;60387;49.994;14.660;2022-07-25T05:17:01;97663.34;;;27.38;39.45
71915;BME280;60387;49.994;14.660;2022-07-25T05:19:35;97665.66;;;27.47;38.98
71915;BME280;60387;49.994;14.660;2022-07-25T05:22:08;97663.13;;;27.59;39.20
71915;BME280;60387;49.994;14.660;2022-07-25T05:24:41;97676.50;;;27.71;38.68
71915;BME280;60387;49.994;14.660;2022-07-25T05:27:14;97664.50;;;27.81;38.87
71915;BME280;60387;49.994;14.660;2022-07-25T05:29:48;97651.25;;;27.92;38.59
71915;BME280;60387;49.994;14.660;2022-07-25T05:32:21;97659.81;;;28.08;38.21
71915;BME280;60387;49.994;14.660;2022-07-25T05:34:54;97658.84;;;28.22;37.89
71915;BME280;60387;49.994;14.660;2022-07-25T05:37:27;97660.69;;;28.35;37.24
71915;BME280;60387;49.994;14.660;2022-07-25T05:40:01;97660.88;;;28.51;37.64
71915;BME280;60387;49.994;14.660;2022-07-25T05:42:35;97660.91;;;28.74;37.30
71915;BME280;60387;49.994;14.660;2022-07-25T05:45:08;97653.50;;;28.91;36.63
71915;BME280;60387;49.994;14.660;2022-07-25T05:47:42;97661.22;;;29.06;35.90
71915;BME280;60387;49.994;14.660;2022-07-25T05:50:15;97659.91;;;29.14;36.07
71915;BME280;60387;49.994;14.660;2022-07-25T05:52:48;97654.16;;;29.25;35.95
71915;BME280;60387;49.994;14.660;2022-07-25T05:55:22;97650.72;;;29.37;35.81
71915;BME280;60387;49.994;14.660;2022-07-25T05:57:55;97648.09;;;29.49;35.56
71915;BME280;60387;49.994;14.660;2022-07-25T06:00:28;97645.44;;;29.65;35.10
71915;BME280;60387;49.994;14.660;2022-07-25T06:03:02;97639.53;;;29.83;35.30
71915;BME280;60387;49.994;14.660;2022-07-25T06:05:35;97647.19;;;29.98;33.40
71915;BME280;60387;49.994;14.660;2022-07-25T06:08:08;97642.53;;;30.11;33.97
71915;BME280;60387;49.994;14.660;2022-07-25T06:10:41;97647.78;;;30.29;33.76
71915;BME280;60387;49.994;14.660;2022-07-25T06:13:15;97647.47;;;30.43;32.51
71915;BME280;60387;49.994;14.660;2022-07-25T06:15:48;97650.00;;;30.53;33.14
71915;BME280;60387;49.994;14.660;2022-07-25T06:18:22;97650.22;;;30.62;31.68
71915;BME280;60387;49.994;14.660;2022-07-25T06:20:56;97647.81;;;30.64;32.88
71915;BME280;60387;49.994;14.660;2022-07-25T06:23:30;97642.81;;;30.72;32.46
71915;BME280;60387;49.994;14.660;2022-07-25T06:26:07;97636.47;;;30.87;30.08
71915;BME280;60387;49.994;14.660;2022-07-25T06:28:40;97643.13;;;30.93;31.50
71915;BME280;60387;49.994;14.660;2022-07-25T06:31:13;97642.94;;;30.84;30.88
71915;BME280;60387;49.994;14.660;2022-07-25T06:33:46;97641.94;;;30.75;31.49
71915;BME280;60387;49.994;14.660;2022-07-25T06:36:20;97643.19;;;30.74;32.14
71915;BME280;60387;49.994;14.660;2022-07-25T06:38:53;97640.13;;;30.84;31.44
71915;BME280;60387;49.994;14.660;2022-07-25T06:41:26;97637.94;;;31.08;30.62
71915;BME280;60387;49.994;14.660;2022-07-25T06:43:59;97643.16;;;31.25;31.67
71915;BME280;60387;49.994;14.660;2022-07-25T06:46:33;97644.16;;;31.47;31.34
71915;BME280;60387;49.994;14.660;2022-07-25T06:49:06;97644.75;;;31.70;31.36
71915;BME280;60387;49.994;14.660;2022-07-25T06:51:39;97641.06;;;32.02;31.28
71915;BME280;60387;49.994;14.660;2022-07-25T06:54:13;97643.81;;;32.18;30.79
71915;BME280;60387;49.994;14.660;2022-07-25T06:56:46;97651.56;;;32.26;30.38
71915;BME280;60387;49.994;14.660;2022-07-25T06:59:19;97637.69;;;32.35;30.78
71915;BME280;60387;49.994;14.660;2022-07-25T07:01:52;97638.03;;;32.50;29.80
71915;BME280;60387;49.994;14.660;2022-07-25T07:04:26;97637.81;;;32.69;30.51
71915;BME280;60387;49.994;14.660;2022-07-25T07:06:59;97637.19;;;32.90;30.01
71915;BME280;60387;49.994;14.660;2022-07-25T07:09:32;97632.56;;;33.09;30.31
71915;BME280;60387;49.994;14.660;2022-07-25T07:12:06;97632.34;;;33.28;29.91
71915;BME280;60387;49.994;14.660;2022-07-25T07:14:39;97627.25;;;33.36;29.30
71915;BME280;60387;49.994;14.660;2022-07-25T07:17:12;97629.91;;;33.52;29.31
71915;BME280;60387;49.994;14.660;2022-07-25T07:19:46;97631.41;;;33.78;29.01
71915;BME280;60387;49.994;14.660;2022-07-25T07:22:19;97620.53;;;34.01;27.81
71915;BME280;60387;49.994;14.660;2022-07-25T07:24:52;97621.88;;;34.18;26.93
71915;BME280;60387;49.994;14.660;2022-07-25T07:27:26;97613.25;;;34.34;27.05
71915;BME280;60387;49.994;14.660;2022-07-25T07:29:59;97609.56;;;34.46;27.38
71915;BME280;60387;49.994;14.660;2022-07-25T07:32:32;97614.03;;;34.65;25.58
71915;BME280;60387;49.994;14.660;2022-07-25T07:35:06;97603.75;;;34.71;26.59
71915;BME280;60387;49.994;14.660;2022-07-25T07:37:39;97594.06;;;34.72;25.24
71915;BME280;60387;49.994;14.660;2022-07-25T07:40:13;97604.25;;;34.79;25.46
71915;BME280;60387;49.994;14.660;2022-07-25T07:42:48;97598.19;;;34.89;26.66
71915;BME280;60387;49.994;14.660;2022-07-25T07:45:23;97590.91;;;35.10;26.81
71915;BME280;60387;49.994;14.660;2022-07-25T07:47:56;97596.13;;;35.29;23.98
71915;BME280;60387;49.994;14.660;2022-07-25T07:50:29;97582.91;;;35.08;24.13
71915;BME280;60387;49.994;14.660;2022-07-25T07:53:03;97577.81;;;34.76;23.76
71915;BME280;60387;49.994;14.660;2022-07-25T07:55:36;97579.72;;;34.49;25.31
71915;BME280;60387;49.994;14.660;2022-07-25T07:58:14;97579.72;;;34.49;25.08
71915;BME280;60387;49.994;14.660;2022-07-25T08:00:48;97574.41;;;34.51;24.84
71915;BME280;60387;49.994;14.660;2022-07-25T08:03:22;97570.47;;;34.48;25.10
71915;BME280;60387;49.994;14.660;2022-07-25T08:05:55;97568.50;;;34.58;24.68
71915;BME280;60387;49.994;14.660;2022-07-25T08:08:29;97561.31;;;34.57;24.21
71915;BME280;60387;49.994;14.660;2022-07-25T08:11:02;97563.78;;;34.55;24.62
71915;BME280;60387;49.994;14.660;2022-07-25T08:13:35;97556.31;;;34.61;25.00
71915;BME280;60387;49.994;14.660;2022-07-25T08:16:09;97538.25;;;34.80;24.21
71915;BME280;60387;49.994;14.660;2022-07-25T08:18:42;97564.66;;;35.22;24.92
71915;BME280;60387;49.994;14.660;2022-07-25T08:21:15;97573.47;;;35.50;24.61
71915;BME280;60387;49.994;14.660;2022-07-25T08:23:49;97552.50;;;35.69;23.74
71915;BME280;60387;49.994;14.660;2022-07-25T08:26:22;97555.91;;;35.73;23.70
71915;BME280;60387;49.994;14.660;2022-07-25T08:28:55;97545.59;;;35.70;24.06
71915;BME280;60387;49.994;14.660;2022-07-25T08:31:29;97559.03;;;35.93;24.80
71915;BME280;60387;49.994;14.660;2022-07-25T08:34:02;97544.78;;;36.15;23.59
71915;BME280;60387;49.994;14.660;2022-07-25T08:36:35;97555.50;;;36.43;23.50
71915;BME280;60387;49.994;14.660;2022-07-25T08:39:09;97556.06;;;36.56;22.72
71915;BME280;60387;49.994;14.660;2022-07-25T08:41:42;97566.75;;;36.52;23.22
71915;BME280;60387;49.994;14.660;2022-07-25T08:44:16;97549.31;;;36.63;24.01
71915;BME280;60387;49.994;14.660;2022-07-25T08:46:50;97557.38;;;36.79;22.42
71915;BME280;60387;49.994;14.660;2022-07-25T08:49:26;97548.25;;;36.60;22.61
71915;BME280;60387;49.994;14.660;2022-07-25T08:52:03;97544.03;;;36.38;23.36
71915;BME280;60387;49.994;14.660;2022-07-25T08:54:37;97530.38;;;36.45;23.45
71915;BME280;60387;49.994;14.660;2022-07-25T08:57:10;97534.03;;;36.78;23.68
71915;BME280;60387;49.994;14.660;2022-07-25T08:59:43;97533.56;;;37.03;22.77
71915;BME280;60387;49.994;14.660;2022-07-25T09:02:17;97527.25;;;37.08;21.63
71915;BME280;60387;49.994;14.660;2022-07-25T09:04:50;97534.19;;;37.07;22.11
71915;BME280;60387;49.994;14.660;2022-07-25T09:07:35;97523.50;;;37.02;23.18
71915;BME280;60387;49.994;14.660;2022-07-25T09:10:25;97529.25;;;37.17;22.35
71915;BME280;60387;49.994;14.660;2022-07-25T09:13:05;97520.63;;;37.35;22.61
71915;BME280;60387;49.994;14.660;2022-07-25T09:15:46;97525.09;;;37.50;22.45
71915;BME280;60387;49.994;14.660;2022-07-25T09:18:24;97528.25;;;37.67;21.54
71915;BME280;60387;49.994;14.660;2022-07-25T09:20:59;97517.41;;;37.51;21.30
71915;BME280;60387;49.994;14.660;2022-07-25T09:26:11;97509.78;;;37.57;21.67
71915;BME280;60387;49.994;14.660;2022-07-25T09:28:47;97506.47;;;37.58;20.36
71915;BME280;60387;49.994;14.660;2022-07-25T09:31:21;97498.41;;;37.42;22.09
71915;BME280;60387;49.994;14.660;2022-07-25T09:34:03;97496.50;;;37.48;21.99
71915;BME280;60387;49.994;14.660;2022-07-25T09:36:38;97501.63;;;37.73;21.21
71915;BME280;60387;49.994;14.660;2022-07-25T09:39:37;97496.38;;;37.95;21.58
71915;BME280;60387;49.994;14.660;2022-07-25T09:47:49;97489.84;;;37.89;20.37
71915;BME280;60387;49.994;14.660;2022-07-25T09:50:25;97494.22;;;37.76;21.02
71915;BME280;60387;49.994;14.660;2022-07-25T09:53:00;97481.63;;;37.91;21.78
71915;BME280;60387;49.994;14.660;2022-07-25T09:55:34;97481.94;;;38.22;21.20
71915;BME280;60387;49.994;14.660;2022-07-25T09:58:07;97486.78;;;38.36;20.16
71915;BME280;60387;49.994;14.660;2022-07-25T10:00:41;97474.00;;;38.26;20.49
71915;BME280;60387;49.994;14.660;2022-07-25T10:06:06;97483.00;;;37.81;19.71
71915;BME280;60387;49.994;14.660;2022-07-25T10:08:40;97472.34;;;37.76;20.63
71915;BME280;60387;49.994;14.660;2022-07-25T10:11:21;97471.72;;;37.96;21.19
71915;BME280;60387;49.994;14.660;2022-07-25T10:13:55;97463.38;;;38.21;20.57
71915;BME280;60387;49.994;14.660;2022-07-25T10:16:28;97473.81;;;38.44;20.16
71915;BME280;60387;49.994;14.660;2022-07-25T10:19:02;97462.19;;;38.42;20.01
71915;BME280;60387;49.994;14.660;2022-07-25T10:21:38;97460.13;;;38.43;19.07
71915;BME280;60387;49.994;14.660;2022-07-25T10:24:11;97462.00;;;38.31;19.15
71915;BME280;60387;49.994;14.660;2022-07-25T10:26:52;97454.59;;;38.19;19.68
71915;BME280;60387;49.994;14.660;2022-07-25T10:29:32;97459.50;;;38.19;19.88
71915;BME280;60387;49.994;14.660;2022-07-25T10:32:12;97445.22;;;38.28;19.79
71915;BME280;60387;49.994;14.660;2022-07-25T10:34:52;97441.31;;;38.40;19.69
71915;BME280;60387;49.994;14.660;2022-07-25T10:37:27;97449.31;;;38.41;19.78
71915;BME280;60387;49.994;14.660;2022-07-25T10:40:00;97442.81;;;38.55;19.51
71915;BME280;60387;49.994;14.660;2022-07-25T10:42:34;97429.19;;;38.74;17.57
71915;BME280;60387;49.994;14.660;2022-07-25T10:45:07;97438.63;;;38.85;18.52
71915;BME280;60387;49.994;14.660;2022-07-25T10:47:50;97417.09;;;38.93;17.76
71915;BME280;60387;49.994;14.660;2022-07-25T10:50:26;97425.03;;;39.09;18.21
71915;BME280;60387;49.994;14.660;2022-07-25T10:52:59;97425.38;;;39.17;18.26
71915;BME280;60387;49.994;14.660;2022-07-25T10:55:34;97411.84;;;39.26;18.08
71915;BME280;60387;49.994;14.660;2022-07-25T10:58:08;97410.31;;;39.25;18.88
71915;BME280;60387;49.994;14.660;2022-07-25T11:00:42;97410.34;;;39.31;17.69
71915;BME280;60387;49.994;14.660;2022-07-25T11:03:15;97408.84;;;39.35;17.34
71915;BME280;60387;49.994;14.660;2022-07-25T11:05:48;97407.53;;;39.31;17.21
71915;BME280;60387;49.994;14.660;2022-07-25T11:08:32;97408.78;;;39.10;17.58
71915;BME280;60387;49.994;14.660;2022-07-25T11:11:07;97405.28;;;38.95;17.87
71915;BME280;60387;49.994;14.660;2022-07-25T11:13:41;97393.09;;;38.89;18.45
71915;BME280;60387;49.994;14.660;2022-07-25T11:16:15;97399.97;;;38.82;17.85
71915;BME280;60387;49.994;14.660;2022-07-25T11:18:48;97395.88;;;38.83;18.29
71915;BME280;60387;49.994;14.660;2022-07-25T11:21:21;97383.09;;;38.93;18.18
71915;BME280;60387;49.994;14.660;2022-07-25T11:23:54;97377.34;;;39.08;18.11
71915;BME280;60387;49.994;14.660;2022-07-25T11:26:28;97380.81;;;39.17;17.55
71915;BME280;60387;49.994;14.660;2022-07-25T11:29:01;97372.03;;;38.95;16.61
71915;BME280;60387;49.994;14.660;2022-07-25T11:31:34;97368.22;;;38.58;17.56
71915;BME280;60387;49.994;14.660;2022-07-25T11:34:08;97363.50;;;38.35;17.96
71915;BME280;60387;49.994;14.660;2022-07-25T11:36:41;97357.56;;;38.33;17.80
71915;BME280;60387;49.994;14.660;2022-07-25T11:39:15;97353.69;;;38.51;18.34
71915;BME280;60387;49.994;14.660;2022-07-25T11:42:01;97350.28;;;38.67;17.82
71915;BME280;60387;49.994;14.660;2022-07-25T11:44:36;97340.59;;;38.73;17.24
71915;BME280;60387;49.994;14.660;2022-07-25T11:47:29;97341.44;;;38.59;17.38
71915;BME280;60387;49.994;14.660;2022-07-25T11:50:03;97330.28;;;38.50;17.97
71915;BME280;60387;49.994;14.660;2022-07-25T11:52:37;97322.47;;;38.65;17.52
71915;BME280;60387;49.994;14.660;2022-07-25T11:55:16;97324.16;;;38.77;17.50
71915;BME280;60387;49.994;14.660;2022-07-25T11:57:57;97322.47;;;38.65;17.16
71915;BME280;60387;49.994;14.660;2022-07-25T12:00:38;97316.97;;;38.56;18.07
71915;BME280;60387;49.994;14.660;2022-07-25T12:03:13;97312.97;;;38.68;16.53
71915;BME280;60387;49.994;14.660;2022-07-25T12:05:48;97312.91;;;38.83;16.78
71915;BME280;60387;49.994;14.660;2022-07-25T12:08:21;97309.72;;;38.75;16.48
71915;BME280;60387;49.994;14.660;2022-07-25T12:10:54;97309.09;;;38.66;16.93
71915;BME280;60387;49.994;14.660;2022-07-25T12:13:29;97297.69;;;38.60;17.22
71915;BME280;60387;49.994;14.660;2022-07-25T12:16:03;97298.69;;;38.57;17.44
71915;BME280;60387;49.994;14.660;2022-07-25T12:18:37;97297.75;;;38.66;17.81
71915;BME280;60387;49.994;14.660;2022-07-25T12:21:10;97302.56;;;38.80;17.03
71915;BME280;60387;49.994;14.660;2022-07-25T12:23:44;97297.38;;;38.78;17.27
71915;BME280;60387;49.994;14.660;2022-07-25T12:26:17;97292.72;;;38.75;17.18
71915;BME280;60387;49.994;14.660;2022-07-25T12:28:51;97290.53;;;38.85;17.59
71915;BME280;60387;49.994;14.660;2022-07-25T12:31:24;97289.09;;;38.95;17.32
71915;BME280;60387;49.994;14.660;2022-07-25T12:33:57;97294.09;;;39.05;17.37
71915;BME280;60387;49.994;14.660;2022-07-25T12:36:30;97289.25;;;39.11;17.39
71915;BME280;60387;49.994;14.660;2022-07-25T12:39:04;97269.97;;;39.15;16.98
71915;BME280;60387;49.994;14.660;2022-07-25T12:41:37;97270.78;;;39.21;17.47
71915;BME280;60387;49.994;14.660;2022-07-25T12:44:10;97258.03;;;39.31;16.88
71915;BME280;60387;49.994;14.660;2022-07-25T12:46:44;97258.31;;;39.33;17.01
71915;BME280;60387;49.994;14.660;2022-07-25T12:49:17;97252.81;;;39.24;16.43
71915;BME280;60387;49.994;14.660;2022-07-25T12:51:50;97248.34;;;39.18;17.26
71915;BME280;60387;49.994;14.660;2022-07-25T12:54:23;97240.06;;;39.14;16.48
71915;BME280;60387;49.994;14.660;2022-07-25T12:56:57;97237.44;;;39.11;16.33
71915;BME280;60387;49.994;14.660;2022-07-25T12:59:30;97240.16;;;38.94;16.26
71915;BME280;60387;49.994;14.660;2022-07-25T13:02:04;97221.50;;;38.62;17.01
71915;BME280;60387;49.994;14.660;2022-07-25T13:04:37;97224.94;;;38.46;17.22
71915;BME280;60387;49.994;14.660;2022-07-25T13:07:12;97217.56;;;38.34;17.32
71915;BME280;60387;49.994;14.660;2022-07-25T13:09:45;97218.41;;;38.20;17.44
71915;BME280;60387;49.994;14.660;2022-07-25T13:12:18;97219.41;;;38.17;16.79
71915;BME280;60387;49.994;14.660;2022-07-25T13:14:52;97214.41;;;38.07;16.85
71915;BME280;60387;49.994;14.660;2022-07-25T13:17:25;97203.69;;;37.96;17.34
71915;BME280;60387;49.994;14.660;2022-07-25T13:19:59;97195.63;;;37.89;17.57
71915;BME280;60387;49.994;14.660;2022-07-25T13:22:32;97196.00;;;37.97;17.47
71915;BME280;60387;49.994;14.660;2022-07-25T13:25:06;97191.66;;;37.81;17.31
71915;BME280;60387;49.994;14.660;2022-07-25T13:27:39;97181.13;;;37.62;17.59
71915;BME280;60387;49.994;14.660;2022-07-25T13:30:13;97168.47;;;37.43;17.97
71915;BME280;60387;49.994;14.660;2022-07-25T13:32:46;97187.00;;;37.44;17.86
71915;BME280;60387;49.994;14.660;2022-07-25T13:35:20;97158.66;;;37.38;18.22
71915;BME280;60387;49.994;14.660;2022-07-25T13:37:53;97168.22;;;37.26;18.36